Time;durP1;ratioP1;P1;durP2;ratioP2;P2;SDS_P1;SDS_P2;PMS_P1;PMS_P2;Temp;Humidity;BMP_temperature;BMP_pressure;BME280_temperature;BME280_humidity;BME280_pressure;Samples;Min_cycle;Max_cycle;Signal;HPM_P1;HPM_P2
2023/05/06 00:01:53;;;;;;;5.15;2.72;;;;;;;23.74;100.00;96360.84;5104156;27;20079;-47
2023/05/06 00:04:21;;;;;;;5.72;2.90;;;;;;;23.66;100.00;96359.28;5103945;27;20082;-48
2023/05/06 00:06:50;;;;;;;7.88;3.75;;;;;;;23.65;100.00;96354.13;5104675;27;20090;-50
2023/05/06 00:09:18;;;;;;;5.38;2.50;;;;;;;23.59;100.00;96355.88;5103524;27;20071;-48
2023/05/06 00:11:47;;;;;;;4.45;2.40;;;;;;;23.67;100.00;96358.28;5105576;27;20083;-52
2023/05/06 00:14:15;;;;;;;15.27;6.45;;;;;;;23.56;100.00;96363.56;5101462;27;20087;-56
2023/05/06 00:16:45;;;;;;;4.65;3.28;;;;;;;23.83;100.00;96356.78;5105061;27;20083;-49
2023/05/06 00:19:13;;;;;;;6.50;2.97;;;;;;;23.43;100.00;96354.66;5104212;28;20102;-51
2023/05/06 00:21:42;;;;;;;5.47;3.33;;;;;;;23.92;100.00;96346.50;5101655;27;20083;-49
2023/05/06 00:24:10;;;;;;;4.45;2.95;;;;;;;23.45;100.00;96347.16;5106321;27;20687;-49
2023/05/06 00:26:38;;;;;;;5.65;3.40;;;;;;;23.31;100.00;96343.00;5097320;27;20097;-55
2023/05/06 00:29:06;;;;;;;6.35;3.30;;;;;;;23.29;100.00;96341.59;5098979;27;20102;-55
2023/05/06 00:31:35;;;;;;;6.43;3.30;;;;;;;22.53;100.00;96343.69;5104186;27;20079;-52
2023/05/06 00:34:04;;;;;;;5.70;3.50;;;;;;;22.19;100.00;96343.19;5099785;28;20102;-54
2023/05/06 00:36:33;;;;;;;5.57;3.13;;;;;;;21.73;100.00;96343.56;5103180;28;20090;-54
2023/05/06 00:39:01;;;;;;;4.97;2.97;;;;;;;22.46;100.00;96340.25;5100731;28;20087;-52
2023/05/06 00:41:31;;;;;;;10.00;3.15;;;;;;;23.07;100.00;96327.81;5104691;27;20079;-49
2023/05/06 00:44:00;;;;;;;5.50;3.20;;;;;;;22.89;100.00;96337.53;5104566;27;20543;-52
2023/05/06 00:46:28;;;;;;;7.70;3.20;;;;;;;22.94;100.00;96326.91;5104904;28;20090;-49
2023/05/06 00:48:56;;;;;;;5.75;3.15;;;;;;;22.95;100.00;96325.91;5105448;27;20102;-48
2023/05/06 00:51:26;;;;;;;8.38;4.90;;;;;;;22.86;100.00;96324.53;5106342;27;20075;-50
2023/05/06 00:53:55;;;;;;;8.32;3.30;;;;;;;23.67;100.00;96312.50;5101645;28;20063;-51
2023/05/06 00:56:23;;;;;;;6.03;3.55;;;;;;;22.31;100.00;96331.75;5104991;28;20539;-52
2023/05/06 00:58:52;;;;;;;5.07;3.53;;;;;;;23.54;100.00;96320.75;5102384;27;20086;-52
2023/05/06 01:01:22;;;;;;;5.95;3.75;;;;;;;23.73;100.00;96312.63;5097707;27;20102;-51
2023/05/06 01:03:55;;;;;;;6.18;3.90;;;;;;;23.77;99.79;96317.31;5103773;28;20079;-51
2023/05/06 01:06:30;;;;;;;10.18;4.65;;;;;;;23.74;100.00;96309.69;5102653;27;20063;-49
2023/05/06 01:09:04;;;;;;;6.90;4.18;;;;;;;23.71;100.00;96312.03;5101551;28;20071;-55
2023/05/06 01:11:38;;;;;;;5.75;4.20;;;;;;;23.81;99.79;96312.28;5097980;28;20059;-50
2023/05/06 01:14:12;;;;;;;6.32;3.95;;;;;;;23.31;100.00;96315.28;5095418;28;20075;-49
2023/05/06 01:16:41;;;;;;;8.18;4.50;;;;;;;23.38;100.00;96313.31;5101846;28;20087;-55
2023/05/06 01:19:12;;;;;;;8.60;4.45;;;;;;;23.09;100.00;96314.94;5099749;28;20084;-52
2023/05/06 01:21:44;;;;;;;6.22;3.60;;;;;;;23.24;100.00;96315.38;5096228;28;20084;-50
2023/05/06 01:24:14;;;;;;;6.15;3.63;;;;;;;22.91;100.00;96315.78;5097551;28;20086;-54
2023/05/06 01:26:42;;;;;;;6.60;3.70;;;;;;;22.87;100.00;96312.72;5097363;28;20745;-50
2023/05/06 01:29:11;;;;;;;6.07;3.60;;;;;;;23.51;100.00;96306.94;5094438;28;20475;-54
2023/05/06 01:31:45;;;;;;;6.22;4.20;;;;;;;23.26;100.00;96302.50;5098438;28;20071;-52
2023/05/06 01:34:17;;;;;;;8.50;4.47;;;;;;;22.93;100.00;96306.47;5099909;28;20095;-56
2023/05/06 01:36:52;;;;;;;7.65;4.38;;;;;;;23.09;100.00;96309.56;5098891;28;20094;-53
2023/05/06 01:39:26;;;;;;;8.10;5.40;;;;;;;22.62;100.00;96310.13;5098957;28;20168;-50
2023/05/06 01:41:58;;;;;;;18.98;13.48;;;;;;;22.66;100.00;96307.81;5098027;28;20142;-57
2023/05/06 01:44:27;;;;;;;9.70;6.15;;;;;;;22.61;100.00;96307.63;5099867;28;20126;-50
2023/05/06 01:50:29;;;;;;;9.82;6.15;;;;;;;23.44;100.00;96312.41;4996465;28;20066;-51
2023/05/06 01:52:58;;;;;;;8.95;5.90;;;;;;;23.32;100.00;96325.00;4995705;28;20136;-53
2023/05/06 01:55:28;;;;;;;8.52;5.97;;;;;;;23.48;100.00;96324.34;5000566;28;20086;-53
2023/05/06 01:57:57;;;;;;;8.15;6.22;;;;;;;23.22;100.00;96318.28;5001026;28;20563;-52
2023/05/06 02:00:26;;;;;;;7.75;5.63;;;;;;;23.66;100.00;96318.06;5000024;28;20085;-55
2023/05/06 02:02:54;;;;;;;8.88;5.80;;;;;;;23.08;100.00;96308.75;4997058;28;20080;-54
2023/05/06 02:05:22;;;;;;;7.38;5.80;;;;;;;23.68;98.94;96311.44;5002654;28;20092;-49
2023/05/06 02:07:50;;;;;;;11.05;6.57;;;;;;;22.98;100.00;96311.97;5003457;28;20089;-50
2023/05/06 02:10:19;;;;;;;7.22;5.55;;;;;;;23.21;100.00;96308.56;5003349;28;20082;-52
2023/05/06 02:12:48;;;;;;;6.97;5.57;;;;;;;22.54;100.00;96313.13;5003137;28;20081;-57
2023/05/06 02:15:17;;;;;;;8.10;5.85;;;;;;;22.48;100.00;96304.06;5003170;28;20046;-51
2023/05/06 02:17:45;;;;;;;11.68;6.40;;;;;;;22.75;100.00;96309.97;5004134;28;20520;-56
2023/05/06 02:20:13;;;;;;;7.68;5.90;;;;;;;23.01;100.00;96301.81;5004508;28;20085;-57
2023/05/06 02:22:42;;;;;;;10.07;5.53;;;;;;;22.93;100.00;96305.66;5009202;28;20085;-52
2023/05/06 02:25:10;;;;;;;10.10;5.88;;;;;;;23.81;97.64;96309.59;5012884;28;20525;-54
2023/05/06 02:27:39;;;;;;;7.00;4.90;;;;;;;23.18;100.00;96310.91;5004788;28;20516;-54
2023/05/06 02:30:09;;;;;;;7.88;5.20;;;;;;;23.59;100.00;96303.91;5003063;28;20085;-54
2023/05/06 02:32:37;;;;;;;;;;;;;;;23.86;99.02;96305.16;5002272;28;20090;-53
2023/05/06 02:35:07;;;;;;;6.97;4.70;;;;;;;23.27;100.00;96311.41;5003586;28;20080;-51
2023/05/06 02:37:35;;;;;;;13.32;6.47;;;;;;;22.96;100.00;96300.63;5001507;28;20086;-55
2023/05/06 02:40:05;;;;;;;6.20;4.53;;;;;;;23.12;100.00;96307.25;5001673;28;20525;-52
2023/05/06 02:42:34;;;;;;;8.53;4.80;;;;;;;23.68;100.00;96305.25;5000216;28;20085;-48
2023/05/06 02:45:02;;;;;;;6.82;4.75;;;;;;;23.26;100.00;96305.19;5004846;28;20092;-54
2023/05/06 02:47:32;;;;;;;9.88;4.72;;;;;;;23.53;100.00;96302.13;5004726;28;20096;-52
2023/05/06 02:50:00;;;;;;;9.55;5.60;;;;;;;23.50;99.79;96311.47;5003949;28;20081;-54
2023/05/06 02:52:28;;;;;;;8.45;5.07;;;;;;;22.97;100.00;96315.72;5003871;28;20567;-52
2023/05/06 02:54:57;;;;;;;32.60;26.83;;;;;;;22.11;100.00;96310.41;5002627;28;20090;-58
2023/05/06 02:57:25;;;;;;;8.25;5.43;;;;;;;22.88;100.00;96300.94;4999450;28;20101;-55
2023/05/06 02:59:53;;;;;;;11.43;5.97;;;;;;;22.10;100.00;96308.78;5002184;28;20078;-50
2023/05/06 03:02:21;;;;;;;14.80;6.90;;;;;;;22.66;100.00;96295.19;5002810;28;20458;-54
2023/05/06 03:04:51;;;;;;;12.10;6.32;;;;;;;23.09;100.00;96299.66;5000995;28;20081;-52
2023/05/06 03:07:20;;;;;;;8.55;5.43;;;;;;;22.62;100.00;96299.38;5003086;28;20557;-51
2023/05/06 03:09:48;;;;;;;8.60;6.10;;;;;;;22.52;100.00;96291.81;5005675;28;20453;-56
2023/05/06 03:12:16;;;;;;;10.38;6.32;;;;;;;22.62;100.00;96296.69;5007146;28;20077;-54
2023/05/06 03:14:44;;;;;;;13.68;6.80;;;;;;;22.63;100.00;96297.50;5005353;28;20085;-54
2023/05/06 03:17:13;;;;;;;9.05;5.95;;;;;;;23.27;100.00;96298.78;5005330;28;20093;-54
2023/05/06 03:19:41;;;;;;;8.57;5.72;;;;;;;23.79;100.00;96298.25;5003691;28;20090;-56
2023/05/06 03:22:11;;;;;;;7.05;5.15;;;;;;;23.62;100.00;96298.06;5003959;28;20086;-56
2023/05/06 03:24:39;;;;;;;7.25;5.20;;;;;;;23.81;98.98;96294.28;5003017;28;20081;-57
2023/05/06 03:27:08;;;;;;;7.07;5.30;;;;;;;23.55;100.00;96297.34;5001768;28;20089;-55
2023/05/06 03:29:36;;;;;;;9.13;5.15;;;;;;;23.92;98.80;96295.34;5003800;28;20576;-56
2023/05/06 03:32:05;;;;;;;7.60;4.97;;;;;;;24.14;91.87;96291.00;5002110;28;20092;-52
2023/05/06 03:34:33;;;;;;;6.65;4.65;;;;;;;23.76;96.02;96296.81;5002182;28;20089;-52
2023/05/06 03:37:01;;;;;;;7.38;5.28;;;;;;;23.84;96.15;96299.16;5004171;28;20540;-55
2023/05/06 03:39:31;;;;;;;7.65;4.93;;;;;;;23.63;97.68;96291.63;5003453;28;20080;-51
2023/05/06 03:41:59;;;;;;;7.50;4.70;;;;;;;23.08;100.00;96294.47;5005050;28;20077;-52
2023/05/06 03:44:28;;;;;;;6.45;4.63;;;;;;;23.72;97.47;96292.97;5002119;28;20089;-53
2023/05/06 03:46:56;;;;;;;6.65;4.55;;;;;;;23.52;98.59;96295.94;4999079;28;20141;-56
2023/05/06 03:49:24;;;;;;;8.60;4.47;;;;;;;23.08;100.00;96292.59;5001342;28;20085;-52
2023/05/06 03:51:53;;;;;;;6.70;4.43;;;;;;;23.03;100.00;96288.97;5003324;28;20085;-53
2023/05/06 03:54:22;;;;;;;9.63;4.38;;;;;;;23.65;100.00;96278.75;4999965;28;20477;-54
2023/05/06 03:56:51;;;;;;;6.75;4.80;;;;;;;23.72;100.00;96284.06;5000262;28;20073;-48
2023/05/06 03:59:19;;;;;;;6.63;4.38;;;;;;;23.79;98.88;96282.09;4999285;28;20104;-51
2023/05/06 04:01:48;;;;;;;6.63;4.55;;;;;;;23.77;99.55;96286.88;4999601;28;20092;-49
2023/05/06 04:04:16;;;;;;;8.15;4.60;;;;;;;23.52;100.00;96292.41;5003814;28;20100;-50
2023/05/06 04:06:44;;;;;;;8.40;4.75;;;;;;;23.68;100.00;96294.47;5001424;28;20365;-51
2023/05/06 04:09:13;;;;;;;8.13;4.90;;;;;;;23.82;100.00;96292.41;5003053;28;20532;-54
2023/05/06 04:11:41;;;;;;;8.77;5.38;;;;;;;23.83;99.17;96294.84;5001118;28;20628;-51
2023/05/06 04:14:11;;;;;;;8.10;5.35;;;;;;;23.89;99.38;96293.91;5002764;28;20081;-51
2023/05/06 04:16:39;;;;;;;6.95;4.95;;;;;;;24.13;94.53;96293.94;5000910;28;20069;-51
2023/05/06 04:19:08;;;;;;;12.63;5.13;;;;;;;23.74;98.26;96296.22;5003507;28;20085;-53
2023/05/06 04:21:36;;;;;;;7.88;4.85;;;;;;;23.59;100.00;96299.34;5000700;28;20081;-56
2023/05/06 04:24:04;;;;;;;6.43;4.53;;;;;;;23.30;100.00;96300.19;5000858;28;20081;-54
2023/05/06 04:26:33;;;;;;;7.65;4.40;;;;;;;23.35;100.00;96300.31;5002648;28;20096;-51
2023/05/06 04:29:02;;;;;;;9.60;4.97;;;;;;;23.23;100.00;96305.66;4998236;28;20244;-54
2023/05/06 04:31:31;;;;;;;8.35;4.95;;;;;;;23.25;100.00;96313.50;4998850;28;20516;-56
2023/05/06 04:34:01;;;;;;;7.05;5.00;;;;;;;23.18;100.00;96314.41;5000869;28;20082;-50
2023/05/06 04:36:29;;;;;;;7.65;4.75;;;;;;;23.22;100.00;96320.97;5001084;28;20069;-52
2023/05/06 04:38:58;;;;;;;6.35;4.60;;;;;;;23.40;100.00;96325.50;5001997;28;20085;-55
2023/05/06 04:41:28;;;;;;;6.72;4.70;;;;;;;23.17;100.00;96328.09;5001727;28;20084;-54
2023/05/06 04:43:56;;;;;;;6.55;4.93;;;;;;;23.27;100.00;96322.19;5003792;28;20084;-49
2023/05/06 04:46:24;;;;;;;7.70;5.28;;;;;;;23.43;100.00;96324.22;5002399;28;20489;-49
2023/05/06 04:48:55;;;;;;;7.93;5.40;;;;;;;24.41;96.28;96332.88;4996750;28;20046;-54
2023/05/06 04:51:24;;;;;;;8.88;5.47;;;;;;;25.06;84.29;96332.63;5002514;28;20632;-48
2023/05/06 04:53:52;;;;;;;9.65;5.45;;;;;;;25.27;79.96;96323.09;5002578;28;20846;-53
2023/05/06 04:56:21;;;;;;;5.88;4.55;;;;;;;26.02;71.75;96335.50;5000639;28;20589;-52
2023/05/06 04:58:49;;;;;;;8.35;4.57;;;;;;;26.07;71.78;96332.06;4996168;28;20472;-52
2023/05/06 05:01:18;;;;;;;5.40;4.15;;;;;;;26.52;68.11;96340.88;5000976;28;20084;-55
2023/05/06 05:03:46;;;;;;;6.00;4.13;;;;;;;25.85;72.38;96346.31;5002659;28;20097;-53
2023/05/06 05:06:16;;;;;;;5.65;4.22;;;;;;;24.57;83.40;96362.63;5001076;28;20101;-57
2023/05/06 05:08:44;;;;;;;7.80;4.47;;;;;;;24.62;91.28;96354.63;5000675;28;20092;-51
2023/05/06 05:11:12;;;;;;;8.73;4.85;;;;;;;24.04;100.00;96355.41;5002004;28;20081;-48
2023/05/06 05:13:41;;;;;;;8.07;4.40;;;;;;;23.59;100.00;96355.03;4996799;28;20085;-52
2023/05/06 05:16:09;;;;;;;9.07;5.25;;;;;;;24.45;98.80;96356.41;4998948;28;20089;-57
2023/05/06 05:18:37;;;;;;;7.70;4.90;;;;;;;24.06;100.00;96360.59;4996980;28;20525;-55
2023/05/06 05:21:05;;;;;;;12.48;4.97;;;;;;;23.79;100.00;96361.00;5003296;28;20109;-56
2023/05/06 05:23:35;;;;;;;10.25;5.18;;;;;;;24.26;100.00;96361.06;4998647;28;20582;-53
2023/05/06 05:26:03;;;;;;;9.93;5.87;;;;;;;24.13;100.00;96361.28;5001157;28;20081;-48
2023/05/06 05:28:32;;;;;;;7.43;5.28;;;;;;;24.34;100.00;96366.09;5004471;28;20096;-55
2023/05/06 05:31:02;;;;;;;8.35;5.90;;;;;;;24.03;100.00;96367.25;4994078;28;20089;-51
2023/05/06 05:33:30;;;;;;;11.43;6.10;;;;;;;24.30;100.00;96370.31;4997985;28;20157;-55
2023/05/06 05:35:58;;;;;;;10.15;5.97;;;;;;;24.60;100.00;96366.72;4997207;28;20089;-54
2023/05/06 05:38:27;;;;;;;8.30;5.38;;;;;;;23.65;100.00;96378.38;4996504;28;20081;-52
2023/05/06 05:40:57;;;;;;;10.27;5.63;;;;;;;23.01;100.00;96374.44;5002139;28;20101;-57
2023/05/06 05:43:25;;;;;;;9.20;6.05;;;;;;;23.06;100.00;96370.03;5005742;28;20097;-56
2023/05/06 05:45:54;;;;;;;8.88;5.88;;;;;;;22.71;100.00;96370.63;5002238;28;20129;-57
2023/05/06 05:48:22;;;;;;;10.40;5.70;;;;;;;23.13;100.00;96367.28;5005301;28;20521;-50
2023/05/06 05:50:50;;;;;;;11.32;5.90;;;;;;;23.82;100.00;96363.22;5004629;28;20097;-55
2023/05/06 05:53:19;;;;;;;10.60;5.93;;;;;;;23.23;100.00;96367.56;5000884;28;20092;-53
2023/05/06 05:55:47;;;;;;;8.27;5.90;;;;;;;24.20;100.00;96361.19;5004994;28;20085;-52
2023/05/06 05:58:16;;;;;;;11.18;5.63;;;;;;;23.85;100.00;96370.03;5005871;28;20571;-57
2023/05/06 06:00:45;;;;;;;8.65;5.80;;;;;;;24.89;100.00;96356.03;5007840;28;20085;-55
2023/05/06 06:03:13;;;;;;;8.65;5.63;;;;;;;25.29;100.00;96369.53;5006911;28;20049;-57
2023/05/06 06:05:42;;;;;;;9.52;6.00;;;;;;;25.38;99.77;96368.09;5005255;28;20108;-49
2023/05/06 06:08:10;;;;;;;10.32;6.20;;;;;;;25.68;94.00;96372.44;5001104;28;20085;-52
2023/05/06 06:10:38;;;;;;;10.52;6.10;;;;;;;26.14;90.09;96368.66;5001717;28;20734;-53
2023/05/06 06:13:06;;;;;;;9.07;5.70;;;;;;;26.26;88.31;96368.59;5000928;28;20101;-53
2023/05/06 06:15:36;;;;;;;8.57;5.88;;;;;;;26.31;89.49;96373.25;5001728;28;20100;-55
2023/05/06 06:18:07;;;;;;;7.43;5.47;;;;;;;26.34;85.60;96370.06;5001500;28;20116;-51
2023/05/06 06:20:37;;;;;;;8.93;6.38;;;;;;;26.10;92.05;96382.94;5004599;28;20093;-53
2023/05/06 06:23:05;;;;;;;10.38;6.43;;;;;;;25.06;100.00;96383.91;5003465;28;20488;-51
2023/05/06 06:25:34;;;;;;;10.45;6.28;;;;;;;25.48;96.44;96387.19;5004446;28;20141;-52
2023/05/06 06:28:02;;;;;;;9.65;6.00;;;;;;;24.80;100.00;96394.13;5002458;28;20479;-56
2023/05/06 06:30:30;;;;;;;9.65;6.30;;;;;;;24.01;100.00;96392.78;5005067;28;20089;-53
2023/05/06 06:33:00;;;;;;;8.93;6.15;;;;;;;24.02;100.00;96395.25;4998581;28;20081;-56
2023/05/06 06:35:29;;;;;;;8.88;6.05;;;;;;;24.79;100.00;96395.19;5002615;28;20081;-54
2023/05/06 06:37:57;;;;;;;7.97;5.97;;;;;;;24.26;100.00;96400.66;5002113;28;20070;-55
2023/05/06 06:40:25;;;;;;;10.80;6.47;;;;;;;24.93;100.00;96400.34;5003346;28;20635;-55
2023/05/06 06:42:54;;;;;;;9.57;6.47;;;;;;;24.69;100.00;96405.75;5005649;28;20074;-55
2023/05/06 06:45:22;;;;;;;9.52;7.35;;;;;;;26.24;92.45;96397.75;5002866;28;20533;-53
2023/05/06 06:47:51;;;;;;;9.32;6.13;;;;;;;25.05;96.61;96404.66;5002881;28;20069;-50
2023/05/06 06:50:21;;;;;;;9.02;6.90;;;;;;;25.76;89.12;96399.06;5003458;28;20085;-53
2023/05/06 06:52:49;;;;;;;10.63;6.60;;;;;;;24.53;100.00;96409.97;5004137;28;20093;-56
2023/05/06 06:55:18;;;;;;;9.50;6.38;;;;;;;25.16;100.00;96402.22;5004760;28;20123;-56
2023/05/06 06:57:46;;;;;;;10.70;6.40;;;;;;;24.67;100.00;96415.94;5001518;28;20085;-49
2023/05/06 07:00:15;;;;;;;7.40;6.28;;;;;;;25.58;97.41;96405.47;4999049;28;20129;-53
2023/05/06 07:02:45;;;;;;;9.48;6.55;;;;;;;24.99;99.95;96412.91;5002569;28;20709;-53
2023/05/06 07:05:14;;;;;;;11.10;6.93;;;;;;;24.67;100.00;96410.56;5002741;28;20529;-57
2023/05/06 07:07:43;;;;;;;9.68;6.18;;;;;;;25.85;98.18;96402.22;5001214;28;20112;-56
2023/05/06 07:10:12;;;;;;;9.43;6.85;;;;;;;25.54;91.74;96398.94;5002156;28;20098;-55
2023/05/06 07:12:40;;;;;;;8.15;5.70;;;;;;;25.98;87.11;96401.91;5005056;28;20481;-57
2023/05/06 07:15:09;;;;;;;9.27;6.45;;;;;;;26.11;80.89;96401.59;5002260;28;20081;-54
2023/05/06 07:17:38;;;;;;;9.50;6.15;;;;;;;27.02;75.09;96401.38;5003171;28;20088;-54
2023/05/06 07:20:07;;;;;;;8.75;6.70;;;;;;;26.83;77.15;96392.72;4999071;28;20100;-52
2023/05/06 07:22:36;;;;;;;8.45;6.70;;;;;;;27.07;75.77;96392.50;5003458;28;20546;-57
2023/05/06 07:25:07;;;;;;;8.70;7.28;;;;;;;27.55;74.35;96397.19;5005114;28;20089;-53
2023/05/06 07:27:35;;;;;;;8.30;7.40;;;;;;;27.97;69.66;96388.41;4998408;28;20078;-52
2023/05/06 07:30:05;;;;;;;9.77;7.88;;;;;;;26.99;73.82;96402.69;5002178;28;20086;-57
2023/05/06 07:32:33;;;;;;;9.32;7.50;;;;;;;28.41;63.33;96393.72;4998795;28;20089;-57
2023/05/06 07:35:01;;;;;;;8.93;6.75;;;;;;;28.49;61.32;96405.97;4999104;28;20081;-53
2023/05/06 07:37:29;;;;;;;7.65;6.25;;;;;;;26.55;77.71;96406.38;5000137;28;20080;-51
2023/05/06 07:39:58;;;;;;;7.75;6.13;;;;;;;26.82;70.21;96412.75;5003783;28;20086;-53
2023/05/06 07:42:28;;;;;;;8.43;6.38;;;;;;;27.03;73.38;96410.31;5000401;28;20092;-57
2023/05/06 07:44:56;;;;;;;11.48;6.20;;;;;;;27.71;65.42;96413.63;5000809;28;20089;-56
2023/05/06 07:47:30;;;;;;;8.88;6.72;;;;;;;28.11;65.42;96421.34;4998856;28;20088;-51
2023/05/06 07:49:59;;;;;;;8.32;6.35;;;;;;;26.66;74.32;96427.91;4997204;28;20092;-52
2023/05/06 07:52:27;;;;;;;8.02;6.93;;;;;;;26.34;79.71;96429.56;5000578;28;20073;-53
2023/05/06 07:54:56;;;;;;;8.07;6.47;;;;;;;27.20;75.69;96435.47;5001382;28;20128;-55
2023/05/06 07:57:24;;;;;;;9.40;6.65;;;;;;;25.21;87.95;96435.50;5003505;28;20165;-56
2023/05/06 07:59:54;;;;;;;10.10;7.55;;;;;;;26.36;76.31;96430.09;5000217;28;20092;-53
2023/05/06 08:02:22;;;;;;;9.90;7.17;;;;;;;26.70;78.14;96430.94;5000893;28;20116;-58
2023/05/06 08:04:51;;;;;;;9.68;6.90;;;;;;;26.81;80.49;96435.47;4998133;28;20520;-55
2023/05/06 08:07:20;;;;;;;8.48;7.25;;;;;;;26.85;79.88;96436.59;4998691;28;20564;-56
2023/05/06 08:09:48;;;;;;;9.73;6.85;;;;;;;26.88;72.18;96430.69;5002273;28;20069;-54
2023/05/06 08:12:16;;;;;;;8.32;7.05;;;;;;;26.99;72.42;96434.38;4997618;28;20589;-50
2023/05/06 08:14:45;;;;;;;8.20;6.63;;;;;;;28.39;63.46;96431.97;5003230;28;20500;-51
2023/05/06 08:17:15;;;;;;;9.05;6.60;;;;;;;28.06;60.84;96430.25;4997415;28;20770;-49
2023/05/06 08:19:43;;;;;;;7.75;5.38;;;;;;;27.96;61.76;96437.47;5001505;28;20081;-55
2023/05/06 08:22:11;;;;;;;6.68;5.05;;;;;;;27.84;66.16;96435.75;4999845;28;20326;-55
2023/05/06 08:24:40;;;;;;;7.78;5.82;;;;;;;27.54;66.76;96440.78;5001128;28;20547;-51
2023/05/06 08:27:08;;;;;;;7.60;5.65;;;;;;;28.41;62.51;96439.81;4996757;28;20081;-54
2023/05/06 08:29:36;;;;;;;8.25;5.95;;;;;;;29.08;58.02;96443.88;4999926;28;20081;-59
2023/05/06 08:32:05;;;;;;;7.40;5.50;;;;;;;28.30;61.05;96448.94;5000424;28;20085;-56
2023/05/06 08:34:35;;;;;;;8.07;5.90;;;;;;;27.64;64.54;96449.84;5001958;28;20459;-54
2023/05/06 08:37:03;;;;;;;7.15;5.90;;;;;;;27.85;66.47;96444.69;5003820;28;20085;-54
2023/05/06 08:39:32;;;;;;;7.57;5.47;;;;;;;27.98;68.10;96452.41;4999405;28;20073;-54
2023/05/06 08:42:01;;;;;;;8.85;5.95;;;;;;;28.56;66.52;96450.81;4999926;28;20104;-51
2023/05/06 08:44:30;;;;;;;7.32;5.90;;;;;;;28.35;63.06;96444.34;5007434;28;20093;-53
2023/05/06 08:46:58;;;;;;;6.32;5.35;;;;;;;29.69;54.71;96451.50;5000654;28;20085;-54
2023/05/06 08:49:26;;;;;;;8.63;6.25;;;;;;;28.34;57.89;96439.19;5001834;28;20084;-55
2023/05/06 08:51:56;;;;;;;7.32;6.00;;;;;;;29.15;55.23;96447.16;4994890;28;20089;-53
2023/05/06 08:54:26;;;;;;;7.97;6.22;;;;;;;29.74;53.05;96435.22;5002045;28;20086;-55
2023/05/06 08:56:56;;;;;;;7.27;6.20;;;;;;;29.19;55.89;96448.28;5004420;28;20128;-54
2023/05/06 08:59:26;;;;;;;6.53;5.78;;;;;;;28.65;58.69;96450.31;5001733;28;20477;-55
2023/05/06 09:01:54;;;;;;;10.13;6.70;;;;;;;29.04;57.34;96451.72;5002028;28;20081;-53
2023/05/06 09:04:23;;;;;;;7.53;5.72;;;;;;;28.97;55.99;96451.09;4998985;28;20507;-58
2023/05/06 09:06:51;;;;;;;7.57;6.13;;;;;;;28.20;58.83;96456.97;5003567;28;20081;-53
2023/05/06 09:09:21;;;;;;;7.95;6.43;;;;;;;28.98;57.88;96455.44;5005691;28;20176;-52
2023/05/06 09:11:52;;;;;;;7.82;5.72;;;;;;;28.99;58.41;96446.25;5008592;28;20084;-50
2023/05/06 09:14:21;;;;;;;8.23;5.50;;;;;;;28.68;59.08;96447.91;5003955;28;20461;-54
2023/05/06 09:16:51;;;;;;;7.60;6.22;;;;;;;29.35;56.36;96446.44;4997667;28;20085;-51
2023/05/06 09:19:21;;;;;;;8.30;6.18;;;;;;;30.10;49.91;96433.38;4996270;28;20097;-59
2023/05/06 09:21:51;;;;;;;7.90;6.00;;;;;;;28.86;55.34;96444.78;4997698;28;20088;-55
2023/05/06 09:24:21;;;;;;;10.03;6.20;;;;;;;29.47;53.34;96438.88;4999066;28;20127;-52
2023/05/06 09:26:51;;;;;;;8.40;6.00;;;;;;;29.74;51.01;96437.94;5002436;28;20085;-58
2023/05/06 09:29:19;;;;;;;7.50;5.85;;;;;;;30.60;50.24;96436.44;5004927;28;20489;-54
2023/05/06 09:31:48;;;;;;;7.07;5.82;;;;;;;30.61;50.42;96433.44;4998089;28;20100;-54
2023/05/06 09:34:16;;;;;;;6.95;5.80;;;;;;;30.03;54.18;96439.06;4999857;28;20096;-55
2023/05/06 09:36:45;;;;;;;7.05;5.45;;;;;;;29.08;53.88;96450.13;4999925;28;20093;-49
2023/05/06 09:39:13;;;;;;;7.93;5.85;;;;;;;30.09;51.13;96433.66;5008193;28;20090;-55
2023/05/06 09:41:43;;;;;;;6.32;5.43;;;;;;;30.02;48.37;96436.63;4986918;28;20081;-56
2023/05/06 09:44:12;;;;;;;9.27;6.03;;;;;;;30.33;50.13;96428.56;4997143;28;20085;-54
2023/05/06 09:46:41;;;;;;;7.15;4.90;;;;;;;29.19;51.63;96442.84;4995028;28;20089;-54
2023/05/06 09:49:10;;;;;;;7.22;5.63;;;;;;;29.92;49.28;96439.34;4994440;28;20125;-55
2023/05/06 09:51:40;;;;;;;6.68;5.38;;;;;;;30.41;48.57;96430.72;4996343;28;20100;-52
2023/05/06 09:54:08;;;;;;;6.57;5.05;;;;;;;28.96;49.95;96441.31;5004832;28;20081;-55
2023/05/06 09:56:37;;;;;;;7.22;5.00;;;;;;;29.27;54.58;96431.47;4995644;28;20534;-56
2023/05/06 09:59:07;;;;;;;6.45;4.38;;;;;;;29.70;49.56;96423.25;5004007;28;20073;-53
2023/05/06 10:01:36;;;;;;;4.60;3.55;;;;;;;29.56;51.40;96431.06;4997076;28;20080;-53
2023/05/06 10:04:08;;;;;;;8.60;4.63;;;;;;;30.39;47.49;96430.19;5003884;28;20100;-56
2023/05/06 10:06:40;;;;;;;5.38;4.53;;;;;;;30.20;47.59;96429.88;4998184;28;20089;-59
2023/05/06 10:09:11;;;;;;;4.72;3.95;;;;;;;30.72;46.03;96428.78;4982221;28;20069;-56
2023/05/06 10:11:40;;;;;;;5.03;3.80;;;;;;;29.46;53.64;96436.44;4994285;28;20043;-58
2023/05/06 10:14:10;;;;;;;6.45;3.88;;;;;;;29.59;49.59;96427.81;4997622;28;20548;-54
2023/05/06 10:16:39;;;;;;;6.40;4.15;;;;;;;30.14;44.87;96420.88;4997187;28;20089;-56
2023/05/06 10:19:08;;;;;;;6.78;4.15;;;;;;;30.15;44.39;96419.81;4997592;28;20092;-58
2023/05/06 10:21:40;;;;;;;5.85;3.85;;;;;;;29.74;47.59;96422.44;5002880;28;20477;-59
2023/05/06 10:24:12;;;;;;;5.00;3.30;;;;;;;29.80;45.27;96412.38;4993158;28;21301;-56
2023/05/06 10:26:43;;;;;;;4.53;3.83;;;;;;;29.47;46.74;96410.91;4998625;28;20526;-57
2023/05/06 10:29:17;;;;;;;4.95;3.65;;;;;;;29.81;48.47;96414.03;5003328;28;20124;-55
2023/05/06 10:31:48;;;;;;;6.28;3.92;;;;;;;29.78;46.75;96414.56;4999226;28;20086;-55
2023/05/06 10:34:19;;;;;;;5.78;3.17;;;;;;;30.21;43.45;96407.03;4999826;28;20085;-55
2023/05/06 10:36:50;;;;;;;5.20;3.33;;;;;;;31.21;42.19;96399.03;5001414;28;20081;-53
2023/05/06 10:39:19;;;;;;;4.90;3.90;;;;;;;30.59;46.79;96402.94;5005307;28;20128;-55
2023/05/06 10:41:47;;;;;;;2.45;1.67;;;;;;;30.71;42.93;96397.22;5007348;28;20081;-57
2023/05/06 10:44:17;;;;;;;4.03;2.15;;;;;;;28.81;45.52;96414.91;5007961;28;20128;-57
2023/05/06 10:46:59;;;;;;;2.53;2.22;;;;;;;29.07;45.31;96409.63;5001297;28;20090;-57
2023/05/06 10:49:28;;;;;;;3.50;2.40;;;;;;;29.39;46.42;96395.94;5007077;28;20085;-61
2023/05/06 10:52:11;;;;;;;3.95;2.50;;;;;;;28.91;44.58;96397.03;5009806;28;20553;-54
2023/05/06 10:54:50;;;;;;;2.40;1.80;;;;;;;29.32;46.25;96388.03;5000004;28;20092;-54
2023/05/06 10:57:25;;;;;;;3.53;2.40;;;;;;;29.06;49.50;96389.81;5007641;28;20082;-55
2023/05/06 10:59:57;;;;;;;3.17;2.20;;;;;;;29.04;46.18;96383.00;5009093;28;20486;-54
2023/05/06 11:02:25;;;;;;;4.15;2.30;;;;;;;29.85;45.00;96373.53;4999937;28;20077;-51
2023/05/06 11:05:00;;;;;;;3.60;2.38;;;;;;;29.01;46.03;96381.66;5009415;28;20082;-54
2023/05/06 11:07:29;;;;;;;3.78;1.85;;;;;;;29.40;47.46;96364.97;5006988;28;20085;-51
2023/05/06 11:09:58;;;;;;;3.13;2.08;;;;;;;30.16;46.43;96363.50;5007986;28;20086;-55
2023/05/06 11:12:58;;;;;;;4.83;1.80;;;;;;;31.44;44.47;96364.09;5005409;28;20086;-55
2023/05/06 11:15:39;;;;;;;3.08;2.08;;;;;;;29.88;43.68;96362.94;5004397;28;20090;-54
2023/05/06 11:18:41;;;;;;;2.90;1.73;;;;;;;29.67;42.90;96356.66;4999634;28;20065;-53
2023/05/06 11:21:40;;;;;;;4.25;2.20;;;;;;;31.65;45.77;96351.97;5003851;28;20089;-53
2023/05/06 11:24:12;;;;;;;5.75;2.28;;;;;;;30.60;46.59;96360.22;5000072;28;20085;-54
2023/05/06 11:26:42;;;;;;;5.05;3.28;;;;;;;30.39;42.95;96367.59;5006281;28;20082;-52
2023/05/06 11:29:10;;;;;;;4.45;3.90;;;;;;;29.82;47.01;96369.44;5006102;28;20081;-53
2023/05/06 11:31:41;;;;;;;5.25;3.75;;;;;;;30.24;49.88;96377.38;5002772;28;20089;-54
2023/05/06 11:34:12;;;;;;;4.55;3.28;;;;;;;30.22;46.76;96382.28;5009047;28;20080;-56
2023/05/06 11:36:48;;;;;;;5.05;4.28;;;;;;;30.08;55.00;96366.75;5002609;28;20096;-54
2023/05/06 11:39:16;;;;;;;4.93;3.40;;;;;;;30.39;46.48;96365.69;5007269;28;20120;-56
2023/05/06 11:41:47;;;;;;;4.60;3.92;;;;;;;30.49;45.45;96368.41;5004611;28;20078;-57
2023/05/06 11:44:24;;;;;;;5.88;4.13;;;;;;;31.58;41.27;96367.81;5014504;28;20046;-51